sensor_id;sensor_type;location;lat;lon;timestamp;pressure;altitude;pressure_sealevel;temperature;humidity
49999;BME280;68071;45.062;7.356;2024-02-21T00:00:27;95905.50;;;6.60;75.93
49999;BME280;68071;45.062;7.356;2024-02-21T00:03:31;95901.69;;;6.45;73.45
49999;BME280;68071;45.062;7.356;2024-02-21T00:06:35;95899.59;;;6.38;71.99
49999;BME280;68071;45.062;7.356;2024-02-21T00:09:39;95902.81;;;6.44;69.99
49999;BME280;68071;45.062;7.356;2024-02-21T00:12:44;95898.38;;;7.02;61.72
49999;BME280;68071;45.062;7.356;2024-02-21T00:15:48;95901.88;;;6.99;60.80
49999;BME280;68071;45.062;7.356;2024-02-21T00:18:52;95902.88;;;6.47;68.79
49999;BME280;68071;45.062;7.356;2024-02-21T00:21:56;95901.38;;;6.70;65.22
49999;BME280;68071;45.062;7.356;2024-02-21T00:25:00;95903.25;;;7.12;60.94
49999;BME280;68071;45.062;7.356;2024-02-21T00:28:05;95901.06;;;6.55;65.88
49999;BME280;68071;45.062;7.356;2024-02-21T00:31:10;95890.09;;;6.16;69.66
49999;BME280;68071;45.062;7.356;2024-02-21T00:34:14;95883.69;;;6.08;80.36
49999;BME280;68071;45.062;7.356;2024-02-21T00:37:19;95885.00;;;5.79;85.70
49999;BME280;68071;45.062;7.356;2024-02-21T00:40:23;95892.34;;;5.39;86.78
49999;BME280;68071;45.062;7.356;2024-02-21T00:43:27;95887.22;;;5.21;89.14
49999;BME280;68071;45.062;7.356;2024-02-21T00:46:31;95888.13;;;5.61;84.38
49999;BME280;68071;45.062;7.356;2024-02-21T00:49:35;95884.66;;;5.12;92.76
49999;BME280;68071;45.062;7.356;2024-02-21T00:52:39;95876.00;;;5.10;93.55
49999;BME280;68071;45.062;7.356;2024-02-21T00:55:43;95869.56;;;5.19;89.88
49999;BME280;68071;45.062;7.356;2024-02-21T00:58:47;95870.63;;;5.66;83.90
49999;BME280;68071;45.062;7.356;2024-02-21T01:01:50;95874.22;;;6.05;81.49
49999;BME280;68071;45.062;7.356;2024-02-21T01:04:54;95878.34;;;6.15;81.91
49999;BME280;68071;45.062;7.356;2024-02-21T01:08:00;95877.75;;;6.06;81.79
49999;BME280;68071;45.062;7.356;2024-02-21T01:11:04;95885.50;;;5.65;88.46
49999;BME280;68071;45.062;7.356;2024-02-21T01:14:08;95872.03;;;5.59;86.36
49999;BME280;68071;45.062;7.356;2024-02-21T01:17:12;95868.63;;;5.82;83.72
49999;BME280;68071;45.062;7.356;2024-02-21T01:20:17;95872.44;;;5.97;81.55
49999;BME280;68071;45.062;7.356;2024-02-21T01:23:21;95874.31;;;5.73;86.03
49999;BME280;68071;45.062;7.356;2024-02-21T01:26:25;95868.84;;;5.73;85.67
49999;BME280;68071;45.062;7.356;2024-02-21T01:29:29;95866.59;;;5.43;87.40
49999;BME280;68071;45.062;7.356;2024-02-21T01:32:33;95868.50;;;5.59;84.47
49999;BME280;68071;45.062;7.356;2024-02-21T01:35:36;95862.63;;;5.41;83.93
49999;BME280;68071;45.062;7.356;2024-02-21T01:38:41;95866.00;;;5.02;88.96
49999;BME280;68071;45.062;7.356;2024-02-21T01:41:45;95860.38;;;4.95;94.78
49999;BME280;68071;45.062;7.356;2024-02-21T01:44:49;95864.88;;;4.87;90.59
49999;BME280;68071;45.062;7.356;2024-02-21T01:47:53;95871.38;;;4.22;97.57
49999;BME280;68071;45.062;7.356;2024-02-21T01:50:57;95877.19;;;4.49;94.24
49999;BME280;68071;45.062;7.356;2024-02-21T01:54:01;95875.16;;;4.46;94.16
49999;BME280;68071;45.062;7.356;2024-02-21T01:57:06;95876.25;;;4.29;97.29
49999;BME280;68071;45.062;7.356;2024-02-21T02:00:11;95868.47;;;4.43;100.00
49999;BME280;68071;45.062;7.356;2024-02-21T02:03:17;95880.34;;;4.35;100.00
49999;BME280;68071;45.062;7.356;2024-02-21T02:06:21;95886.25;;;4.37;100.00
49999;BME280;68071;45.062;7.356;2024-02-21T02:09:25;95878.75;;;4.78;98.37
49999;BME280;68071;45.062;7.356;2024-02-21T02:12:29;95886.03;;;4.58;100.00
49999;BME280;68071;45.062;7.356;2024-02-21T02:15:40;95890.25;;;3.70;100.00
49999;BME280;68071;45.062;7.356;2024-02-21T02:18:45;95878.66;;;3.48;100.00
49999;BME280;68071;45.062;7.356;2024-02-21T02:21:56;95883.72;;;3.87;100.00
49999;BME280;68071;45.062;7.356;2024-02-21T02:25:03;95886.44;;;4.73;91.97
49999;BME280;68071;45.062;7.356;2024-02-21T02:28:08;95891.47;;;3.73;100.00
49999;BME280;68071;45.062;7.356;2024-02-21T02:31:13;95883.91;;;3.54;100.00
49999;BME280;68071;45.062;7.356;2024-02-21T02:34:16;95877.84;;;3.60;100.00
49999;BME280;68071;45.062;7.356;2024-02-21T02:37:20;95874.66;;;3.99;100.00
49999;BME280;68071;45.062;7.356;2024-02-21T02:40:25;95867.06;;;3.92;100.00
49999;BME280;68071;45.062;7.356;2024-02-21T02:43:28;95857.00;;;3.97;100.00
49999;BME280;68071;45.062;7.356;2024-02-21T02:46:32;95855.78;;;4.22;100.00
49999;BME280;68071;45.062;7.356;2024-02-21T02:49:37;95852.97;;;4.35;100.00
49999;BME280;68071;45.062;7.356;2024-02-21T02:52:41;95855.06;;;4.26;97.74
49999;BME280;68071;45.062;7.356;2024-02-21T02:55:45;95853.00;;;4.06;100.00
49999;BME280;68071;45.062;7.356;2024-02-21T02:58:50;95853.91;;;3.70;100.00
49999;BME280;68071;45.062;7.356;2024-02-21T03:01:53;95848.06;;;3.84;100.00
49999;BME280;68071;45.062;7.356;2024-02-21T03:04:57;95842.19;;;3.69;100.00
49999;BME280;68071;45.062;7.356;2024-02-21T03:08:02;95842.97;;;3.98;100.00
49999;BME280;68071;45.062;7.356;2024-02-21T03:11:10;95845.84;;;4.46;98.19
49999;BME280;68071;45.062;7.356;2024-02-21T03:14:15;95841.28;;;4.98;88.79
49999;BME280;68071;45.062;7.356;2024-02-21T03:17:19;95847.47;;;4.79;92.57
49999;BME280;68071;45.062;7.356;2024-02-21T03:20:23;95847.72;;;4.74;96.30
49999;BME280;68071;45.062;7.356;2024-02-21T03:23:27;95852.94;;;4.79;95.13
49999;BME280;68071;45.062;7.356;2024-02-21T03:26:31;95853.13;;;4.71;95.11
49999;BME280;68071;45.062;7.356;2024-02-21T03:29:35;95849.13;;;4.52;93.76
49999;BME280;68071;45.062;7.356;2024-02-21T03:32:39;95853.50;;;5.01;85.03
49999;BME280;68071;45.062;7.356;2024-02-21T03:35:43;95853.34;;;4.05;100.00
49999;BME280;68071;45.062;7.356;2024-02-21T03:38:47;95853.81;;;4.23;97.04
49999;BME280;68071;45.062;7.356;2024-02-21T03:41:52;95851.78;;;4.64;90.11
49999;BME280;68071;45.062;7.356;2024-02-21T03:44:56;95858.97;;;4.24;95.92
49999;BME280;68071;45.062;7.356;2024-02-21T03:48:00;95852.94;;;3.90;100.00
49999;BME280;68071;45.062;7.356;2024-02-21T03:51:04;95848.72;;;4.21;99.36
49999;BME280;68071;45.062;7.356;2024-02-21T03:54:08;95856.56;;;4.23;95.60
49999;BME280;68071;45.062;7.356;2024-02-21T03:57:13;95862.03;;;4.23;100.00
49999;BME280;68071;45.062;7.356;2024-02-21T04:00:17;95855.63;;;4.31;99.59
49999;BME280;68071;45.062;7.356;2024-02-21T04:03:21;95854.03;;;4.46;97.23
49999;BME280;68071;45.062;7.356;2024-02-21T04:06:25;95851.78;;;5.12;85.76
49999;BME280;68071;45.062;7.356;2024-02-21T04:09:29;95856.28;;;5.92;73.11
49999;BME280;68071;45.062;7.356;2024-02-21T04:12:33;95855.13;;;5.93;78.18
49999;BME280;68071;45.062;7.356;2024-02-21T04:15:38;95843.75;;;4.88;95.75
49999;BME280;68071;45.062;7.356;2024-02-21T04:18:42;95837.91;;;4.41;100.00
49999;BME280;68071;45.062;7.356;2024-02-21T04:21:46;95835.50;;;4.39;100.00
49999;BME280;68071;45.062;7.356;2024-02-21T04:24:51;95842.38;;;5.65;73.01
49999;BME280;68071;45.062;7.356;2024-02-21T04:27:55;95835.75;;;5.30;88.10
49999;BME280;68071;45.062;7.356;2024-02-21T04:30:59;95839.50;;;5.22;88.11
49999;BME280;68071;45.062;7.356;2024-02-21T04:34:03;95853.72;;;5.12;90.13
49999;BME280;68071;45.062;7.356;2024-02-21T04:37:07;95861.97;;;4.96;92.89
49999;BME280;68071;45.062;7.356;2024-02-21T04:40:11;95864.16;;;4.74;92.34
49999;BME280;68071;45.062;7.356;2024-02-21T04:43:16;95867.25;;;4.28;100.00
49999;BME280;68071;45.062;7.356;2024-02-21T04:46:20;95855.94;;;4.74;92.07
49999;BME280;68071;45.062;7.356;2024-02-21T04:49:24;95862.22;;;4.59;93.85
49999;BME280;68071;45.062;7.356;2024-02-21T04:52:28;95870.97;;;4.96;85.45
49999;BME280;68071;45.062;7.356;2024-02-21T04:55:32;95875.31;;;4.81;85.37
49999;BME280;68071;45.062;7.356;2024-02-21T04:58:39;95878.81;;;4.82;87.51
49999;BME280;68071;45.062;7.356;2024-02-21T05:01:43;95885.63;;;4.72;86.86
49999;BME280;68071;45.062;7.356;2024-02-21T05:04:47;95887.50;;;4.84;84.19
49999;BME280;68071;45.062;7.356;2024-02-21T05:07:51;95882.16;;;4.59;91.41
49999;BME280;68071;45.062;7.356;2024-02-21T05:10:55;95880.16;;;4.72;88.14
49999;BME280;68071;45.062;7.356;2024-02-21T05:13:59;95886.09;;;4.46;96.93
49999;BME280;68071;45.062;7.356;2024-02-21T05:17:04;95884.63;;;4.64;91.07
49999;BME280;68071;45.062;7.356;2024-02-21T05:20:09;95893.38;;;4.70;92.05
49999;BME280;68071;45.062;7.356;2024-02-21T05:23:13;95888.94;;;4.21;95.52
49999;BME280;68071;45.062;7.356;2024-02-21T05:26:21;95880.53;;;4.42;88.26
49999;BME280;68071;45.062;7.356;2024-02-21T05:29:26;95879.66;;;4.54;93.56
49999;BME280;68071;45.062;7.356;2024-02-21T05:32:31;95879.78;;;4.74;83.03
49999;BME280;68071;45.062;7.356;2024-02-21T05:35:35;95878.81;;;4.66;84.18
49999;BME280;68071;45.062;7.356;2024-02-21T05:38:39;95879.34;;;4.88;78.62
49999;BME280;68071;45.062;7.356;2024-02-21T05:41:43;95875.47;;;5.72;64.43
49999;BME280;68071;45.062;7.356;2024-02-21T05:44:48;95871.03;;;5.16;71.64
49999;BME280;68071;45.062;7.356;2024-02-21T05:47:52;95872.38;;;5.06;73.56
49999;BME280;68071;45.062;7.356;2024-02-21T05:50:56;95869.72;;;4.62;77.80
49999;BME280;68071;45.062;7.356;2024-02-21T05:54:00;95872.38;;;4.30;83.93
49999;BME280;68071;45.062;7.356;2024-02-21T05:57:04;95875.72;;;4.23;83.69
49999;BME280;68071;45.062;7.356;2024-02-21T06:00:09;95874.47;;;4.49;77.88
49999;BME280;68071;45.062;7.356;2024-02-21T06:03:17;95878.19;;;6.08;59.01
49999;BME280;68071;45.062;7.356;2024-02-21T06:06:21;95880.53;;;5.19;70.27
49999;BME280;68071;45.062;7.356;2024-02-21T06:09:25;95883.19;;;4.99;70.47
49999;BME280;68071;45.062;7.356;2024-02-21T06:12:29;95877.31;;;4.68;76.61
49999;BME280;68071;45.062;7.356;2024-02-21T06:15:33;95877.38;;;4.40;83.25
49999;BME280;68071;45.062;7.356;2024-02-21T06:18:37;95883.31;;;4.74;79.07
49999;BME280;68071;45.062;7.356;2024-02-21T06:21:41;95890.59;;;4.98;78.20
49999;BME280;68071;45.062;7.356;2024-02-21T06:24:45;95883.81;;;4.64;82.15
49999;BME280;68071;45.062;7.356;2024-02-21T06:27:50;95880.78;;;3.80;92.94
49999;BME280;68071;45.062;7.356;2024-02-21T06:30:54;95883.06;;;4.06;90.13
49999;BME280;68071;45.062;7.356;2024-02-21T06:33:58;95889.78;;;4.09;87.96
49999;BME280;68071;45.062;7.356;2024-02-21T06:37:02;95888.25;;;4.52;80.50
49999;BME280;68071;45.062;7.356;2024-02-21T06:40:07;95903.47;;;4.09;94.43
49999;BME280;68071;45.062;7.356;2024-02-21T06:43:11;95907.03;;;4.26;90.40
49999;BME280;68071;45.062;7.356;2024-02-21T06:46:26;95900.59;;;3.77;98.47
49999;BME280;68071;45.062;7.356;2024-02-21T06:49:30;95911.81;;;4.00;98.08
49999;BME280;68071;45.062;7.356;2024-02-21T06:52:35;95914.69;;;3.91;95.54
49999;BME280;68071;45.062;7.356;2024-02-21T06:55:39;95907.34;;;4.08;98.43
49999;BME280;68071;45.062;7.356;2024-02-21T06:58:43;95909.44;;;4.27;92.66
49999;BME280;68071;45.062;7.356;2024-02-21T07:01:54;95914.09;;;4.39;100.00
49999;BME280;68071;45.062;7.356;2024-02-21T07:04:59;95919.78;;;4.62;98.34
49999;BME280;68071;45.062;7.356;2024-02-21T07:08:03;95912.50;;;4.38;100.00
49999;BME280;68071;45.062;7.356;2024-02-21T07:11:08;95920.00;;;4.69;100.00
49999;BME280;68071;45.062;7.356;2024-02-21T07:14:14;95928.50;;;4.80;100.00
49999;BME280;68071;45.062;7.356;2024-02-21T07:17:18;95934.41;;;5.30;92.72
49999;BME280;68071;45.062;7.356;2024-02-21T07:20:22;95928.34;;;5.21;100.00
49999;BME280;68071;45.062;7.356;2024-02-21T07:23:26;95935.22;;;5.47;100.00
49999;BME280;68071;45.062;7.356;2024-02-21T07:26:31;95927.91;;;5.87;97.03
49999;BME280;68071;45.062;7.356;2024-02-21T07:29:35;95922.41;;;6.03;100.00
49999;BME280;68071;45.062;7.356;2024-02-21T07:32:39;95924.19;;;6.15;90.59
49999;BME280;68071;45.062;7.356;2024-02-21T07:35:43;95929.13;;;6.45;83.00
49999;BME280;68071;45.062;7.356;2024-02-21T07:38:48;95935.97;;;6.74;74.26
49999;BME280;68071;45.062;7.356;2024-02-21T07:41:52;95933.81;;;7.07;62.67
49999;BME280;68071;45.062;7.356;2024-02-21T07:44:56;95940.19;;;7.34;62.36
49999;BME280;68071;45.062;7.356;2024-02-21T07:48:01;95936.06;;;7.48;59.71
49999;BME280;68071;45.062;7.356;2024-02-21T07:51:06;95947.25;;;7.59;60.05
49999;BME280;68071;45.062;7.356;2024-02-21T07:54:10;95942.72;;;7.47;60.46
49999;BME280;68071;45.062;7.356;2024-02-21T07:57:14;95951.19;;;7.34;59.32
49999;BME280;68071;45.062;7.356;2024-02-21T08:00:18;95939.81;;;7.36;58.98
49999;BME280;68071;45.062;7.356;2024-02-21T08:03:25;95946.69;;;7.49;59.54
49999;BME280;68071;45.062;7.356;2024-02-21T08:06:30;95946.81;;;7.56;56.61
49999;BME280;68071;45.062;7.356;2024-02-21T08:09:35;95934.41;;;7.66;53.67
49999;BME280;68071;45.062;7.356;2024-02-21T08:12:41;95938.59;;;7.83;54.13
49999;BME280;68071;45.062;7.356;2024-02-21T08:15:46;95933.16;;;7.91;53.49
49999;BME280;68071;45.062;7.356;2024-02-21T08:18:50;95928.38;;;7.84;54.06
49999;BME280;68071;45.062;7.356;2024-02-21T08:21:54;95935.94;;;7.91;56.30
49999;BME280;68071;45.062;7.356;2024-02-21T08:24:58;95936.75;;;7.91;58.78
49999;BME280;68071;45.062;7.356;2024-02-21T08:28:02;95928.84;;;7.90;60.61
49999;BME280;68071;45.062;7.356;2024-02-21T08:31:06;95930.22;;;7.76;58.44
49999;BME280;68071;45.062;7.356;2024-02-21T08:34:09;95943.56;;;7.74;58.72
49999;BME280;68071;45.062;7.356;2024-02-21T08:37:13;95932.66;;;7.81;58.80
49999;BME280;68071;45.062;7.356;2024-02-21T08:40:18;95937.91;;;7.90;59.08
49999;BME280;68071;45.062;7.356;2024-02-21T08:43:25;95932.00;;;7.92;56.86
49999;BME280;68071;45.062;7.356;2024-02-21T08:46:29;95933.75;;;8.03;55.97
49999;BME280;68071;45.062;7.356;2024-02-21T08:49:33;95930.03;;;8.19;52.85
49999;BME280;68071;45.062;7.356;2024-02-21T08:52:37;95937.50;;;8.18;53.30
49999;BME280;68071;45.062;7.356;2024-02-21T08:55:41;95938.56;;;8.71;52.72
49999;BME280;68071;45.062;7.356;2024-02-21T08:58:48;95934.03;;;8.25;54.15
49999;BME280;68071;45.062;7.356;2024-02-21T09:01:52;95940.53;;;8.40;51.82
49999;BME280;68071;45.062;7.356;2024-02-21T09:04:57;95937.59;;;8.56;52.20
49999;BME280;68071;45.062;7.356;2024-02-21T09:08:00;95944.34;;;8.97;50.38
49999;BME280;68071;45.062;7.356;2024-02-21T09:11:06;95943.50;;;9.30;51.04
49999;BME280;68071;45.062;7.356;2024-02-21T09:14:10;95938.44;;;9.36;47.50
49999;BME280;68071;45.062;7.356;2024-02-21T09:17:14;95942.03;;;9.44;46.94
49999;BME280;68071;45.062;7.356;2024-02-21T09:20:19;95938.38;;;8.91;47.70
49999;BME280;68071;45.062;7.356;2024-02-21T09:23:26;95936.69;;;9.17;46.52
49999;BME280;68071;45.062;7.356;2024-02-21T09:26:30;95934.19;;;9.46;45.87
49999;BME280;68071;45.062;7.356;2024-02-21T09:29:34;95929.75;;;9.37;46.57
49999;BME280;68071;45.062;7.356;2024-02-21T09:32:38;95939.78;;;9.12;48.34
49999;BME280;68071;45.062;7.356;2024-02-21T09:35:42;95935.78;;;9.05;49.38
49999;BME280;68071;45.062;7.356;2024-02-21T09:38:46;95930.38;;;9.20;48.82
49999;BME280;68071;45.062;7.356;2024-02-21T09:41:50;95931.53;;;9.60;47.56
49999;BME280;68071;45.062;7.356;2024-02-21T09:44:59;95928.47;;;9.73;46.50
49999;BME280;68071;45.062;7.356;2024-02-21T09:51:28;95939.28;;;9.92;46.38
49999;BME280;68071;45.062;7.356;2024-02-21T09:54:36;95941.47;;;9.72;45.28
49999;BME280;68071;45.062;7.356;2024-02-21T09:57:40;95936.38;;;9.78;48.35
49999;BME280;68071;45.062;7.356;2024-02-21T10:00:44;95940.78;;;9.86;49.24
49999;BME280;68071;45.062;7.356;2024-02-21T10:03:49;95936.81;;;9.83;47.34
49999;BME280;68071;45.062;7.356;2024-02-21T10:06:53;95938.97;;;10.12;48.24
49999;BME280;68071;45.062;7.356;2024-02-21T10:10:04;95929.13;;;10.14;48.95
49999;BME280;68071;45.062;7.356;2024-02-21T10:13:09;95937.50;;;10.29;48.24
49999;BME280;68071;45.062;7.356;2024-02-21T10:16:15;95941.38;;;10.13;47.89
49999;BME280;68071;45.062;7.356;2024-02-21T10:19:19;95944.41;;;9.97;51.27
49999;BME280;68071;45.062;7.356;2024-02-21T10:22:24;95939.69;;;9.98;51.47
49999;BME280;68071;45.062;7.356;2024-02-21T10:25:29;95942.88;;;10.00;59.31
49999;BME280;68071;45.062;7.356;2024-02-21T10:28:34;95942.13;;;10.07;61.63
49999;BME280;68071;45.062;7.356;2024-02-21T10:31:38;95943.38;;;10.20;60.30
49999;BME280;68071;45.062;7.356;2024-02-21T10:34:43;95945.34;;;10.20;58.17
49999;BME280;68071;45.062;7.356;2024-02-21T10:37:49;95937.50;;;10.33;57.03
49999;BME280;68071;45.062;7.356;2024-02-21T10:40:54;95944.66;;;10.37;56.28
49999;BME280;68071;45.062;7.356;2024-02-21T10:44:05;95939.09;;;10.30;61.08
49999;BME280;68071;45.062;7.356;2024-02-21T10:47:10;95933.22;;;10.39;60.77
49999;BME280;68071;45.062;7.356;2024-02-21T10:50:15;95922.69;;;10.63;59.90
49999;BME280;68071;45.062;7.356;2024-02-21T10:53:34;95921.09;;;10.65;59.66
49999;BME280;68071;45.062;7.356;2024-02-21T10:56:40;95916.66;;;10.39;60.06
49999;BME280;68071;45.062;7.356;2024-02-21T10:59:45;95922.22;;;10.53;61.43
49999;BME280;68071;45.062;7.356;2024-02-21T11:02:51;95910.56;;;10.15;60.34
49999;BME280;68071;45.062;7.356;2024-02-21T11:05:55;95903.72;;;10.61;58.41
49999;BME280;68071;45.062;7.356;2024-02-21T11:12:06;95891.50;;;10.66;57.17
49999;BME280;68071;45.062;7.356;2024-02-21T11:15:11;95892.72;;;10.83;58.19
49999;BME280;68071;45.062;7.356;2024-02-21T11:18:23;95886.44;;;11.04;60.64
49999;BME280;68071;45.062;7.356;2024-02-21T11:21:34;95882.09;;;11.03;55.65
49999;BME280;68071;45.062;7.356;2024-02-21T11:24:40;95879.72;;;10.94;58.96
49999;BME280;68071;45.062;7.356;2024-02-21T11:27:47;95873.78;;;11.10;54.33
49999;BME280;68071;45.062;7.356;2024-02-21T11:30:51;95868.66;;;11.12;52.45
49999;BME280;68071;45.062;7.356;2024-02-21T11:33:56;95858.34;;;10.77;54.91
49999;BME280;68071;45.062;7.356;2024-02-21T11:37:02;95866.22;;;10.67;52.89
49999;BME280;68071;45.062;7.356;2024-02-21T11:40:17;95854.78;;;10.76;54.28
49999;BME280;68071;45.062;7.356;2024-02-21T11:43:21;95849.69;;;10.85;56.19
49999;BME280;68071;45.062;7.356;2024-02-21T11:46:25;95846.13;;;10.99;56.71
49999;BME280;68071;45.062;7.356;2024-02-21T11:49:29;95841.78;;;10.98;57.34
49999;BME280;68071;45.062;7.356;2024-02-21T11:52:34;95840.19;;;10.94;59.86
49999;BME280;68071;45.062;7.356;2024-02-21T11:55:38;95833.91;;;11.18;61.28
49999;BME280;68071;45.062;7.356;2024-02-21T11:58:43;95822.41;;;11.45;56.84
49999;BME280;68071;45.062;7.356;2024-02-21T12:01:48;95820.81;;;11.41;57.28
49999;BME280;68071;45.062;7.356;2024-02-21T12:04:51;95804.63;;;11.10;61.06
49999;BME280;68071;45.062;7.356;2024-02-21T12:07:56;95797.13;;;11.18;63.63
49999;BME280;68071;45.062;7.356;2024-02-21T12:11:02;95793.97;;;11.30;64.01
49999;BME280;68071;45.062;7.356;2024-02-21T12:14:06;95782.09;;;11.37;63.03
49999;BME280;68071;45.062;7.356;2024-02-21T12:17:10;95780.50;;;11.40;66.20
49999;BME280;68071;45.062;7.356;2024-02-21T12:20:14;95773.00;;;11.22;67.37
49999;BME280;68071;45.062;7.356;2024-02-21T12:23:19;95775.75;;;11.51;74.82
49999;BME280;68071;45.062;7.356;2024-02-21T12:26:23;95771.81;;;11.34;65.70
49999;BME280;68071;45.062;7.356;2024-02-21T12:29:27;95761.50;;;11.60;71.65
49999;BME280;68071;45.062;7.356;2024-02-21T12:32:33;95763.00;;;11.79;80.18
49999;BME280;68071;45.062;7.356;2024-02-21T12:35:37;95756.66;;;11.89;64.23
49999;BME280;68071;45.062;7.356;2024-02-21T12:38:41;95751.97;;;11.68;62.80
49999;BME280;68071;45.062;7.356;2024-02-21T12:41:45;95749.59;;;11.59;67.75
49999;BME280;68071;45.062;7.356;2024-02-21T12:44:51;95751.16;;;11.71;58.40
49999;BME280;68071;45.062;7.356;2024-02-21T12:47:56;95747.66;;;11.60;56.92
49999;BME280;68071;45.062;7.356;2024-02-21T12:51:01;95745.28;;;11.55;57.79
49999;BME280;68071;45.062;7.356;2024-02-21T12:54:06;95736.91;;;11.76;58.42
49999;BME280;68071;45.062;7.356;2024-02-21T12:57:10;95726.25;;;11.68;72.34
49999;BME280;68071;45.062;7.356;2024-02-21T13:00:15;95721.13;;;11.70;69.82
49999;BME280;68071;45.062;7.356;2024-02-21T13:03:19;95723.84;;;11.80;72.75
49999;BME280;68071;45.062;7.356;2024-02-21T13:06:23;95722.94;;;12.09;70.43
49999;BME280;68071;45.062;7.356;2024-02-21T13:09:27;95723.44;;;11.82;78.03
49999;BME280;68071;45.062;7.356;2024-02-21T13:12:31;95710.09;;;11.52;83.41
49999;BME280;68071;45.062;7.356;2024-02-21T13:15:36;95704.53;;;11.59;85.21
49999;BME280;68071;45.062;7.356;2024-02-21T13:18:42;95698.69;;;11.35;84.24
49999;BME280;68071;45.062;7.356;2024-02-21T13:21:47;95689.09;;;11.54;80.01
49999;BME280;68071;45.062;7.356;2024-02-21T13:24:51;95693.47;;;11.52;88.06
49999;BME280;68071;45.062;7.356;2024-02-21T13:27:55;95687.91;;;11.55;83.73
49999;BME280;68071;45.062;7.356;2024-02-21T13:30:59;95686.44;;;11.25;76.72
49999;BME280;68071;45.062;7.356;2024-02-21T13:34:03;95681.94;;;11.71;78.03
49999;BME280;68071;45.062;7.356;2024-02-21T13:37:08;95668.22;;;11.35;72.90
49999;BME280;68071;45.062;7.356;2024-02-21T13:40:13;95678.88;;;11.51;77.84
49999;BME280;68071;45.062;7.356;2024-02-21T13:43:17;95667.22;;;11.89;71.51
49999;BME280;68071;45.062;7.356;2024-02-21T13:46:21;95655.53;;;12.27;68.85
49999;BME280;68071;45.062;7.356;2024-02-21T13:49:25;95657.88;;;11.54;74.18
49999;BME280;68071;45.062;7.356;2024-02-21T13:52:30;95660.59;;;11.72;75.13
49999;BME280;68071;45.062;7.356;2024-02-21T13:55:34;95645.22;;;11.60;74.11
49999;BME280;68071;45.062;7.356;2024-02-21T13:58:39;95642.06;;;11.58;69.52
49999;BME280;68071;45.062;7.356;2024-02-21T14:01:43;95634.44;;;11.73;66.13
49999;BME280;68071;45.062;7.356;2024-02-21T14:04:47;95628.81;;;11.91;64.15
49999;BME280;68071;45.062;7.356;2024-02-21T14:07:51;95621.63;;;12.08;63.37
49999;BME280;68071;45.062;7.356;2024-02-21T14:10:58;95615.72;;;12.55;59.24
49999;BME280;68071;45.062;7.356;2024-02-21T14:14:04;95611.84;;;12.45;61.59
49999;BME280;68071;45.062;7.356;2024-02-21T14:17:08;95606.56;;;12.62;58.78
49999;BME280;68071;45.062;7.356;2024-02-21T14:20:12;95600.50;;;12.25;65.49
49999;BME280;68071;45.062;7.356;2024-02-21T14:23:17;95596.41;;;11.84;68.96
49999;BME280;68071;45.062;7.356;2024-02-21T14:26:21;95606.59;;;12.05;60.46
49999;BME280;68071;45.062;7.356;2024-02-21T14:29:25;95590.53;;;12.35;58.43
49999;BME280;68071;45.062;7.356;2024-02-21T14:32:29;95587.38;;;12.36;60.29
49999;BME280;68071;45.062;7.356;2024-02-21T14:35:33;95585.69;;;12.46;55.87
49999;BME280;68071;45.062;7.356;2024-02-21T14:38:37;95571.72;;;12.12;60.10
49999;BME280;68071;45.062;7.356;2024-02-21T14:41:41;95576.03;;;12.16;60.89
49999;BME280;68071;45.062;7.356;2024-02-21T14:44:47;95570.91;;;12.15;61.97
49999;BME280;68071;45.062;7.356;2024-02-21T14:47:51;95563.84;;;12.10;59.76
49999;BME280;68071;45.062;7.356;2024-02-21T14:50:55;95570.28;;;11.89;58.82
49999;BME280;68071;45.062;7.356;2024-02-21T14:53:59;95555.59;;;11.99;58.92
49999;BME280;68071;45.062;7.356;2024-02-21T14:57:04;95552.88;;;11.85;59.93
49999;BME280;68071;45.062;7.356;2024-02-21T15:00:08;95545.13;;;11.61;61.56
49999;BME280;68071;45.062;7.356;2024-02-21T15:03:13;95541.34;;;11.30;68.75
49999;BME280;68071;45.062;7.356;2024-02-21T15:06:22;95546.13;;;11.22;75.49
49999;BME280;68071;45.062;7.356;2024-02-21T15:09:26;95536.78;;;10.87;81.17
49999;BME280;68071;45.062;7.356;2024-02-21T15:12:31;95535.63;;;10.81;85.67
49999;BME280;68071;45.062;7.356;2024-02-21T15:15:35;95529.34;;;10.77;85.49
49999;BME280;68071;45.062;7.356;2024-02-21T15:18:39;95528.91;;;10.82;83.29
49999;BME280;68071;45.062;7.356;2024-02-21T15:21:43;95523.84;;;10.66;86.04
49999;BME280;68071;45.062;7.356;2024-02-21T15:24:48;95533.72;;;10.59;84.40
49999;BME280;68071;45.062;7.356;2024-02-21T15:27:52;95519.84;;;10.74;85.20
49999;BME280;68071;45.062;7.356;2024-02-21T15:30:56;95527.34;;;10.84;84.09
49999;BME280;68071;45.062;7.356;2024-02-21T15:34:01;95519.06;;;10.70;82.37
49999;BME280;68071;45.062;7.356;2024-02-21T15:37:04;95527.72;;;10.83;78.82
49999;BME280;68071;45.062;7.356;2024-02-21T15:40:08;95518.69;;;10.71;82.10
49999;BME280;68071;45.062;7.356;2024-02-21T15:43:13;95520.25;;;10.76;81.50
49999;BME280;68071;45.062;7.356;2024-02-21T15:46:18;95513.91;;;10.79;84.64
49999;BME280;68071;45.062;7.356;2024-02-21T15:49:21;95517.53;;;10.58;86.93
49999;BME280;68071;45.062;7.356;2024-02-21T15:52:25;95517.19;;;10.45;85.92
49999;BME280;68071;45.062;7.356;2024-02-21T15:55:30;95513.63;;;10.37;87.98
49999;BME280;68071;45.062;7.356;2024-02-21T15:58:34;95514.81;;;10.47;87.70
49999;BME280;68071;45.062;7.356;2024-02-21T16:01:38;95511.63;;;10.41;90.10
49999;BME280;68071;45.062;7.356;2024-02-21T16:04:43;95508.50;;;10.18;93.28
49999;BME280;68071;45.062;7.356;2024-02-21T16:07:47;95507.72;;;10.24;91.25
49999;BME280;68071;45.062;7.356;2024-02-21T16:10:51;95506.91;;;10.20;90.55
49999;BME280;68071;45.062;7.356;2024-02-21T16:13:55;95506.53;;;10.18;92.65
49999;BME280;68071;45.062;7.356;2024-02-21T16:16:59;95509.28;;;10.36;92.44
49999;BME280;68071;45.062;7.356;2024-02-21T16:20:03;95510.88;;;10.26;93.12
49999;BME280;68071;45.062;7.356;2024-02-21T16:23:07;95504.56;;;10.15;92.26
49999;BME280;68071;45.062;7.356;2024-02-21T16:26:12;95502.56;;;10.23;92.03
49999;BME280;68071;45.062;7.356;2024-02-21T16:29:15;95511.28;;;10.39;91.01